sensor_id;sensor_type;location;lat;lon;timestamp;P1;durP1;ratioP1;P2;durP2;ratioP2
75112;SDS011;63692;47.338;8.520;2023-12-28T05:32:48;5.40;;;2.60;;
75112;SDS011;63692;47.338;8.520;2023-12-28T05:35:13;4.80;;;2.38;;
75112;SDS011;63692;47.338;8.520;2023-12-28T05:37:39;6.80;;;2.63;;
75112;SDS011;63692;47.338;8.520;2023-12-28T05:40:05;4.65;;;2.35;;
75112;SDS011;63692;47.338;8.520;2023-12-28T05:44:56;4.50;;;2.30;;
75112;SDS011;63692;47.338;8.520;2023-12-28T05:52:24;5.32;;;2.08;;
75112;SDS011;63692;47.338;8.520;2023-12-28T05:54:50;5.68;;;2.40;;
75112;SDS011;63692;47.338;8.520;2023-12-28T08:31:20;5.57;;;2.75;;
75112;SDS011;63692;47.338;8.520;2023-12-28T08:33:46;6.13;;;2.92;;
75112;SDS011;63692;47.338;8.520;2023-12-28T08:38:53;7.15;;;2.90;;
75112;SDS011;63692;47.338;8.520;2023-12-28T08:41:21;6.40;;;3.00;;
75112;SDS011;63692;47.338;8.520;2023-12-28T08:43:49;7.22;;;3.55;;
75112;SDS011;63692;47.338;8.520;2023-12-28T08:46:15;6.78;;;2.70;;
75112;SDS011;63692;47.338;8.520;2023-12-28T08:48:41;5.80;;;2.95;;
75112;SDS011;63692;47.338;8.520;2023-12-28T08:51:08;7.93;;;3.03;;
75112;SDS011;63692;47.338;8.520;2023-12-28T08:53:34;6.70;;;3.00;;
75112;SDS011;63692;47.338;8.520;2023-12-28T08:56:00;7.78;;;2.95;;
75112;SDS011;63692;47.338;8.520;2023-12-28T08:58:25;7.10;;;2.90;;
75112;SDS011;63692;47.338;8.520;2023-12-28T09:00:51;8.95;;;2.83;;
75112;SDS011;63692;47.338;8.520;2023-12-28T09:03:16;5.28;;;2.97;;
75112;SDS011;63692;47.338;8.520;2023-12-28T09:05:42;6.82;;;2.90;;
75112;SDS011;63692;47.338;8.520;2023-12-28T09:08:08;8.23;;;3.25;;
75112;SDS011;63692;47.338;8.520;2023-12-28T09:10:34;9.23;;;3.65;;
75112;SDS011;63692;47.338;8.520;2023-12-28T09:12:59;7.70;;;3.40;;
75112;SDS011;63692;47.338;8.520;2023-12-28T09:15:25;6.55;;;3.13;;
75112;SDS011;63692;47.338;8.520;2023-12-28T09:17:50;7.15;;;3.05;;
75112;SDS011;63692;47.338;8.520;2023-12-28T09:20:16;8.00;;;3.17;;
75112;SDS011;63692;47.338;8.520;2023-12-28T09:22:43;7.32;;;3.10;;
75112;SDS011;63692;47.338;8.520;2023-12-28T09:25:09;8.50;;;3.20;;
75112;SDS011;63692;47.338;8.520;2023-12-28T09:27:34;6.95;;;3.40;;
75112;SDS011;63692;47.338;8.520;2023-12-28T09:30:01;7.65;;;2.65;;
75112;SDS011;63692;47.338;8.520;2023-12-28T09:32:26;8.43;;;3.10;;
75112;SDS011;63692;47.338;8.520;2023-12-28T09:34:52;9.70;;;3.13;;
75112;SDS011;63692;47.338;8.520;2023-12-28T09:37:17;7.03;;;3.28;;
75112;SDS011;63692;47.338;8.520;2023-12-28T09:39:43;6.53;;;2.85;;
75112;SDS011;63692;47.338;8.520;2023-12-28T09:42:17;7.20;;;3.10;;
75112;SDS011;63692;47.338;8.520;2023-12-28T09:44:51;5.45;;;2.85;;
75112;SDS011;63692;47.338;8.520;2023-12-28T09:47:17;5.68;;;2.92;;
75112;SDS011;63692;47.338;8.520;2023-12-28T09:49:43;8.65;;;3.20;;
75112;SDS011;63692;47.338;8.520;2023-12-28T09:52:09;8.68;;;3.00;;
75112;SDS011;63692;47.338;8.520;2023-12-28T09:54:34;9.40;;;3.45;;
75112;SDS011;63692;47.338;8.520;2023-12-28T09:57:00;9.07;;;3.25;;
75112;SDS011;63692;47.338;8.520;2023-12-28T09:59:26;11.40;;;3.55;;
75112;SDS011;63692;47.338;8.520;2023-12-28T10:01:53;6.20;;;3.03;;
75112;SDS011;63692;47.338;8.520;2023-12-28T10:04:21;7.10;;;2.70;;
75112;SDS011;63692;47.338;8.520;2023-12-28T10:06:47;8.57;;;2.90;;
75112;SDS011;63692;47.338;8.520;2023-12-28T10:09:12;6.75;;;2.83;;
75112;SDS011;63692;47.338;8.520;2023-12-28T10:11:38;12.90;;;4.00;;
75112;SDS011;63692;47.338;8.520;2023-12-28T10:14:03;8.68;;;3.95;;
75112;SDS011;63692;47.338;8.520;2023-12-28T10:16:29;6.60;;;3.22;;
75112;SDS011;63692;47.338;8.520;2023-12-28T10:18:55;8.98;;;3.38;;
75112;SDS011;63692;47.338;8.520;2023-12-28T10:21:23;7.00;;;3.20;;
75112;SDS011;63692;47.338;8.520;2023-12-28T10:23:48;7.03;;;3.20;;
75112;SDS011;63692;47.338;8.520;2023-12-28T10:26:14;7.40;;;3.28;;
75112;SDS011;63692;47.338;8.520;2023-12-28T10:28:42;7.18;;;3.00;;
75112;SDS011;63692;47.338;8.520;2023-12-28T10:31:09;5.43;;;2.97;;
75112;SDS011;63692;47.338;8.520;2023-12-28T10:33:35;5.95;;;3.13;;
75112;SDS011;63692;47.338;8.520;2023-12-28T10:36:02;5.03;;;2.65;;
75112;SDS011;63692;47.338;8.520;2023-12-28T10:38:32;6.82;;;2.67;;
75112;SDS011;63692;47.338;8.520;2023-12-28T10:41:01;5.38;;;2.55;;
75112;SDS011;63692;47.338;8.520;2023-12-28T10:43:31;12.25;;;4.72;;
75112;SDS011;63692;47.338;8.520;2023-12-28T10:46:06;5.20;;;2.90;;
75112;SDS011;63692;47.338;8.520;2023-12-28T10:48:34;6.53;;;2.83;;
75112;SDS011;63692;47.338;8.520;2023-12-28T10:51:06;7.53;;;3.00;;
75112;SDS011;63692;47.338;8.520;2023-12-28T10:54:19;5.95;;;2.95;;
75112;SDS011;63692;47.338;8.520;2023-12-28T10:56:46;5.63;;;3.03;;
75112;SDS011;63692;47.338;8.520;2023-12-28T11:01:49;7.20;;;2.67;;
75112;SDS011;63692;47.338;8.520;2023-12-28T11:06:51;6.25;;;2.70;;
75112;SDS011;63692;47.338;8.520;2023-12-28T11:11:45;4.53;;;2.03;;
75112;SDS011;63692;47.338;8.520;2023-12-28T11:14:12;6.68;;;2.38;;
75112;SDS011;63692;47.338;8.520;2023-12-28T11:16:38;4.28;;;2.47;;
75112;SDS011;63692;47.338;8.520;2023-12-28T11:19:05;8.68;;;2.55;;
75112;SDS011;63692;47.338;8.520;2023-12-28T11:21:32;5.30;;;2.65;;
75112;SDS011;63692;47.338;8.520;2023-12-28T11:23:58;6.85;;;3.40;;
75112;SDS011;63692;47.338;8.520;2023-12-28T11:26:25;6.85;;;3.08;;
75112;SDS011;63692;47.338;8.520;2023-12-28T11:36:24;4.90;;;2.35;;
75112;SDS011;63692;47.338;8.520;2023-12-28T11:41:24;7.97;;;2.63;;
75112;SDS011;63692;47.338;8.520;2023-12-28T11:43:53;5.97;;;2.60;;
75112;SDS011;63692;47.338;8.520;2023-12-28T11:46:22;6.47;;;3.13;;
75112;SDS011;63692;47.338;8.520;2023-12-28T11:48:48;5.85;;;2.88;;
75112;SDS011;63692;47.338;8.520;2023-12-28T11:51:14;7.43;;;2.55;;
75112;SDS011;63692;47.338;8.520;2023-12-28T11:53:42;5.47;;;3.00;;
75112;SDS011;63692;47.338;8.520;2023-12-28T11:56:17;5.83;;;2.77;;
75112;SDS011;63692;47.338;8.520;2023-12-28T12:06:16;6.30;;;2.70;;
75112;SDS011;63692;47.338;8.520;2023-12-28T12:11:11;5.13;;;2.83;;
75112;SDS011;63692;47.338;8.520;2023-12-28T12:13:37;8.70;;;3.03;;
75112;SDS011;63692;47.338;8.520;2023-12-28T12:16:06;6.13;;;3.10;;
75112;SDS011;63692;47.338;8.520;2023-12-28T12:18:32;5.90;;;3.08;;
75112;SDS011;63692;47.338;8.520;2023-12-28T12:23:28;6.28;;;3.00;;
75112;SDS011;63692;47.338;8.520;2023-12-28T12:25:54;5.95;;;2.90;;
75112;SDS011;63692;47.338;8.520;2023-12-28T12:28:20;6.00;;;2.90;;
75112;SDS011;63692;47.338;8.520;2023-12-28T12:30:50;7.13;;;2.90;;
75112;SDS011;63692;47.338;8.520;2023-12-28T12:33:19;7.78;;;3.35;;
75112;SDS011;63692;47.338;8.520;2023-12-28T12:35:46;5.60;;;2.63;;
75112;SDS011;63692;47.338;8.520;2023-12-28T12:40:43;5.97;;;2.78;;
75112;SDS011;63692;47.338;8.520;2023-12-28T12:43:08;5.20;;;2.55;;
75112;SDS011;63692;47.338;8.520;2023-12-28T12:45:35;6.88;;;2.70;;
75112;SDS011;63692;47.338;8.520;2023-12-28T12:48:04;5.55;;;2.60;;
75112;SDS011;63692;47.338;8.520;2023-12-28T12:50:31;6.75;;;2.83;;
75112;SDS011;63692;47.338;8.520;2023-12-28T12:53:00;4.70;;;2.40;;
75112;SDS011;63692;47.338;8.520;2023-12-28T12:55:26;5.28;;;2.75;;
75112;SDS011;63692;47.338;8.520;2023-12-28T12:57:52;6.43;;;2.70;;
75112;SDS011;63692;47.338;8.520;2023-12-28T13:00:21;5.00;;;3.03;;
75112;SDS011;63692;47.338;8.520;2023-12-28T13:02:48;5.63;;;2.67;;
75112;SDS011;63692;47.338;8.520;2023-12-28T13:07:46;5.32;;;2.15;;
75112;SDS011;63692;47.338;8.520;2023-12-28T13:10:12;6.80;;;2.40;;
75112;SDS011;63692;47.338;8.520;2023-12-28T13:12:38;9.32;;;2.60;;
75112;SDS011;63692;47.338;8.520;2023-12-28T13:15:03;8.73;;;2.20;;
75112;SDS011;63692;47.338;8.520;2023-12-28T13:17:31;4.35;;;2.53;;
75112;SDS011;63692;47.338;8.520;2023-12-28T13:19:56;8.38;;;2.67;;
75112;SDS011;63692;47.338;8.520;2023-12-28T13:22:22;4.93;;;2.28;;
75112;SDS011;63692;47.338;8.520;2023-12-28T13:24:48;7.07;;;2.80;;
75112;SDS011;63692;47.338;8.520;2023-12-28T13:27:13;4.88;;;2.20;;
75112;SDS011;63692;47.338;8.520;2023-12-28T13:29:39;5.78;;;2.35;;
75112;SDS011;63692;47.338;8.520;2023-12-28T13:32:05;5.65;;;2.38;;
75112;SDS011;63692;47.338;8.520;2023-12-28T13:34:31;6.45;;;2.58;;
75112;SDS011;63692;47.338;8.520;2023-12-28T13:36:57;5.32;;;2.50;;
75112;SDS011;63692;47.338;8.520;2023-12-28T13:39:24;6.13;;;2.88;;
75112;SDS011;63692;47.338;8.520;2023-12-28T13:41:50;5.25;;;2.60;;
75112;SDS011;63692;47.338;8.520;2023-12-28T13:44:15;4.50;;;2.60;;
75112;SDS011;63692;47.338;8.520;2023-12-28T13:46:42;4.93;;;2.70;;
75112;SDS011;63692;47.338;8.520;2023-12-28T13:49:08;4.38;;;2.45;;
75112;SDS011;63692;47.338;8.520;2023-12-28T13:51:34;5.70;;;2.70;;
75112;SDS011;63692;47.338;8.520;2023-12-28T13:54:00;4.90;;;2.50;;
75112;SDS011;63692;47.338;8.520;2023-12-28T13:56:26;5.65;;;2.53;;
75112;SDS011;63692;47.338;8.520;2023-12-28T13:58:51;4.15;;;2.60;;
75112;SDS011;63692;47.338;8.520;2023-12-28T14:01:17;6.55;;;2.78;;
75112;SDS011;63692;47.338;8.520;2023-12-28T14:03:43;5.43;;;2.80;;
75112;SDS011;63692;47.338;8.520;2023-12-28T14:06:10;5.65;;;2.42;;
75112;SDS011;63692;47.338;8.520;2023-12-28T14:08:36;5.82;;;2.67;;
75112;SDS011;63692;47.338;8.520;2023-12-28T14:11:02;8.95;;;2.88;;
75112;SDS011;63692;47.338;8.520;2023-12-28T14:13:27;7.47;;;3.78;;
75112;SDS011;63692;47.338;8.520;2023-12-28T14:15:53;4.57;;;2.53;;
75112;SDS011;63692;47.338;8.520;2023-12-28T14:18:19;4.90;;;2.67;;
75112;SDS011;63692;47.338;8.520;2023-12-28T14:20:45;5.75;;;2.83;;
75112;SDS011;63692;47.338;8.520;2023-12-28T14:23:10;5.70;;;3.15;;
75112;SDS011;63692;47.338;8.520;2023-12-28T14:25:37;8.40;;;3.00;;
75112;SDS011;63692;47.338;8.520;2023-12-28T14:28:03;5.40;;;2.70;;
75112;SDS011;63692;47.338;8.520;2023-12-28T14:30:30;5.70;;;2.75;;
75112;SDS011;63692;47.338;8.520;2023-12-28T14:32:56;7.97;;;3.30;;
75112;SDS011;63692;47.338;8.520;2023-12-28T14:35:22;5.50;;;2.85;;
75112;SDS011;63692;47.338;8.520;2023-12-28T14:37:47;6.40;;;3.10;;
75112;SDS011;63692;47.338;8.520;2023-12-28T14:40:13;9.85;;;3.58;;
75112;SDS011;63692;47.338;8.520;2023-12-28T14:42:39;6.63;;;3.25;;
75112;SDS011;63692;47.338;8.520;2023-12-28T14:45:05;6.20;;;3.22;;
75112;SDS011;63692;47.338;8.520;2023-12-28T14:47:31;7.43;;;3.08;;
75112;SDS011;63692;47.338;8.520;2023-12-28T14:49:57;8.25;;;3.53;;
75112;SDS011;63692;47.338;8.520;2023-12-28T14:52:23;7.13;;;3.00;;
75112;SDS011;63692;47.338;8.520;2023-12-28T14:54:49;5.32;;;3.05;;
75112;SDS011;63692;47.338;8.520;2023-12-28T14:57:22;7.43;;;3.03;;
75112;SDS011;63692;47.338;8.520;2023-12-28T14:59:47;8.02;;;3.20;;
75112;SDS011;63692;47.338;8.520;2023-12-28T15:02:13;6.07;;;2.88;;
75112;SDS011;63692;47.338;8.520;2023-12-28T15:04:38;8.40;;;3.20;;
75112;SDS011;63692;47.338;8.520;2023-12-28T15:07:05;5.82;;;3.00;;
75112;SDS011;63692;47.338;8.520;2023-12-28T15:09:31;5.40;;;2.90;;
75112;SDS011;63692;47.338;8.520;2023-12-28T15:11:57;6.38;;;2.53;;
75112;SDS011;63692;47.338;8.520;2023-12-28T15:14:24;5.10;;;2.40;;
75112;SDS011;63692;47.338;8.520;2023-12-28T15:16:50;6.85;;;2.92;;
75112;SDS011;63692;47.338;8.520;2023-12-28T15:19:16;5.10;;;2.60;;
75112;SDS011;63692;47.338;8.520;2023-12-28T15:21:43;5.28;;;2.88;;
75112;SDS011;63692;47.338;8.520;2023-12-28T15:24:09;7.72;;;3.38;;
75112;SDS011;63692;47.338;8.520;2023-12-28T15:26:35;7.72;;;3.30;;
75112;SDS011;63692;47.338;8.520;2023-12-28T15:29:01;9.18;;;3.63;;
75112;SDS011;63692;47.338;8.520;2023-12-28T15:31:28;7.80;;;3.33;;
75112;SDS011;63692;47.338;8.520;2023-12-28T15:33:55;9.60;;;3.40;;
75112;SDS011;63692;47.338;8.520;2023-12-28T15:36:21;8.27;;;3.38;;
75112;SDS011;63692;47.338;8.520;2023-12-28T15:38:47;6.28;;;2.90;;
75112;SDS011;63692;47.338;8.520;2023-12-28T15:41:13;7.10;;;3.00;;
75112;SDS011;63692;47.338;8.520;2023-12-28T15:43:39;8.95;;;3.53;;
75112;SDS011;63692;47.338;8.520;2023-12-28T15:46:04;10.70;;;3.70;;
75112;SDS011;63692;47.338;8.520;2023-12-28T15:48:30;7.40;;;3.67;;
75112;SDS011;63692;47.338;8.520;2023-12-28T15:50:55;10.90;;;3.80;;
75112;SDS011;63692;47.338;8.520;2023-12-28T15:53:21;9.85;;;4.18;;
75112;SDS011;63692;47.338;8.520;2023-12-28T15:55:47;6.95;;;3.63;;
75112;SDS011;63692;47.338;8.520;2023-12-28T15:58:12;7.22;;;3.20;;
75112;SDS011;63692;47.338;8.520;2023-12-28T16:00:38;6.53;;;3.10;;
75112;SDS011;63692;47.338;8.520;2023-12-28T16:03:04;7.00;;;3.28;;
75112;SDS011;63692;47.338;8.520;2023-12-28T16:05:29;7.40;;;3.70;;
75112;SDS011;63692;47.338;8.520;2023-12-28T16:07:55;9.90;;;4.13;;
75112;SDS011;63692;47.338;8.520;2023-12-28T16:10:21;6.60;;;3.33;;
75112;SDS011;63692;47.338;8.520;2023-12-28T16:12:48;7.22;;;3.00;;
75112;SDS011;63692;47.338;8.520;2023-12-28T16:20:08;9.13;;;3.58;;
75112;SDS011;63692;47.338;8.520;2023-12-28T16:22:35;10.13;;;4.38;;
75112;SDS011;63692;47.338;8.520;2023-12-28T16:25:01;9.02;;;4.10;;
75112;SDS011;63692;47.338;8.520;2023-12-28T16:27:27;10.07;;;3.60;;
75112;SDS011;63692;47.338;8.520;2023-12-28T16:29:53;7.65;;;3.65;;
75112;SDS011;63692;47.338;8.520;2023-12-28T16:32:18;10.10;;;4.18;;
75112;SDS011;63692;47.338;8.520;2023-12-28T16:34:44;7.20;;;3.65;;
75112;SDS011;63692;47.338;8.520;2023-12-28T16:37:10;6.40;;;3.50;;
75112;SDS011;63692;47.338;8.520;2023-12-28T16:39:35;6.38;;;3.40;;
75112;SDS011;63692;47.338;8.520;2023-12-28T16:42:01;7.20;;;3.70;;
75112;SDS011;63692;47.338;8.520;2023-12-28T16:44:27;9.07;;;3.47;;
75112;SDS011;63692;47.338;8.520;2023-12-28T16:46:52;7.45;;;3.67;;
75112;SDS011;63692;47.338;8.520;2023-12-28T16:49:18;6.50;;;3.35;;
75112;SDS011;63692;47.338;8.520;2023-12-28T16:51:44;9.55;;;4.30;;
75112;SDS011;63692;47.338;8.520;2023-12-28T16:54:11;11.88;;;4.88;;
75112;SDS011;63692;47.338;8.520;2023-12-28T16:56:37;9.93;;;4.32;;
75112;SDS011;63692;47.338;8.520;2023-12-28T16:59:04;10.95;;;4.68;;
75112;SDS011;63692;47.338;8.520;2023-12-28T17:01:29;10.98;;;4.32;;
75112;SDS011;63692;47.338;8.520;2023-12-28T17:03:58;9.68;;;3.97;;
75112;SDS011;63692;47.338;8.520;2023-12-28T17:06:24;11.30;;;4.63;;
75112;SDS011;63692;47.338;8.520;2023-12-28T17:08:49;7.40;;;3.72;;
75112;SDS011;63692;47.338;8.520;2023-12-28T17:11:15;9.20;;;3.85;;
75112;SDS011;63692;47.338;8.520;2023-12-28T17:13:42;7.05;;;3.80;;
75112;SDS011;63692;47.338;8.520;2023-12-28T17:16:08;11.55;;;4.97;;
75112;SDS011;63692;47.338;8.520;2023-12-28T17:18:34;18.20;;;6.07;;
75112;SDS011;63692;47.338;8.520;2023-12-28T17:21:00;16.30;;;7.82;;
75112;SDS011;63692;47.338;8.520;2023-12-28T17:23:35;19.25;;;7.72;;
75112;SDS011;63692;47.338;8.520;2023-12-28T17:26:18;18.27;;;7.15;;
75112;SDS011;63692;47.338;8.520;2023-12-28T17:28:47;15.52;;;6.85;;
75112;SDS011;63692;47.338;8.520;2023-12-28T17:31:18;15.85;;;6.80;;
75112;SDS011;63692;47.338;8.520;2023-12-28T17:33:46;13.35;;;5.18;;
75112;SDS011;63692;47.338;8.520;2023-12-28T17:36:13;15.63;;;6.60;;
75112;SDS011;63692;47.338;8.520;2023-12-28T17:38:39;12.40;;;5.93;;
75112;SDS011;63692;47.338;8.520;2023-12-28T17:41:06;13.98;;;5.95;;
75112;SDS011;63692;47.338;8.520;2023-12-28T17:46:27;13.50;;;5.97;;
75112;SDS011;63692;47.338;8.520;2023-12-28T17:49:04;13.25;;;5.68;;
75112;SDS011;63692;47.338;8.520;2023-12-28T17:51:34;11.00;;;5.10;;
75112;SDS011;63692;47.338;8.520;2023-12-28T17:54:00;10.63;;;4.80;;
75112;SDS011;63692;47.338;8.520;2023-12-28T17:56:27;12.75;;;5.60;;
75112;SDS011;63692;47.338;8.520;2023-12-28T17:58:53;11.98;;;5.00;;
75112;SDS011;63692;47.338;8.520;2023-12-28T18:01:19;11.65;;;5.38;;
75112;SDS011;63692;47.338;8.520;2023-12-28T18:03:44;14.27;;;5.90;;
75112;SDS011;63692;47.338;8.520;2023-12-28T18:06:13;8.68;;;4.65;;
75112;SDS011;63692;47.338;8.520;2023-12-28T20:03:45;9.15;;;4.43;;
75112;SDS011;63692;47.338;8.520;2023-12-28T20:06:10;7.80;;;4.35;;
75112;SDS011;63692;47.338;8.520;2023-12-28T20:08:36;10.75;;;4.95;;
75112;SDS011;63692;47.338;8.520;2023-12-28T20:11:01;8.63;;;4.72;;
75112;SDS011;63692;47.338;8.520;2023-12-28T20:13:27;8.27;;;4.47;;
75112;SDS011;63692;47.338;8.520;2023-12-28T20:15:53;9.35;;;4.78;;
75112;SDS011;63692;47.338;8.520;2023-12-28T20:18:19;9.10;;;4.47;;
75112;SDS011;63692;47.338;8.520;2023-12-28T20:20:44;8.05;;;4.95;;
75112;SDS011;63692;47.338;8.520;2023-12-28T20:23:10;9.35;;;4.68;;
75112;SDS011;63692;47.338;8.520;2023-12-28T20:25:36;7.90;;;4.53;;
75112;SDS011;63692;47.338;8.520;2023-12-28T20:28:02;9.85;;;4.72;;
75112;SDS011;63692;47.338;8.520;2023-12-28T20:30:28;8.05;;;4.63;;
75112;SDS011;63692;47.338;8.520;2023-12-28T20:32:55;9.35;;;4.78;;
75112;SDS011;63692;47.338;8.520;2023-12-28T20:35:21;12.85;;;5.68;;
75112;SDS011;63692;47.338;8.520;2023-12-28T20:37:47;10.10;;;5.43;;
75112;SDS011;63692;47.338;8.520;2023-12-28T20:40:12;8.93;;;4.80;;
75112;SDS011;63692;47.338;8.520;2023-12-28T20:42:38;9.60;;;5.10;;
75112;SDS011;63692;47.338;8.520;2023-12-28T20:45:04;8.50;;;4.78;;
75112;SDS011;63692;47.338;8.520;2023-12-28T20:47:30;8.30;;;4.20;;
75112;SDS011;63692;47.338;8.520;2023-12-28T20:49:55;7.57;;;4.18;;
75112;SDS011;63692;47.338;8.520;2023-12-28T20:52:22;7.43;;;4.53;;
75112;SDS011;63692;47.338;8.520;2023-12-28T20:54:47;8.23;;;4.72;;
75112;SDS011;63692;47.338;8.520;2023-12-28T20:57:16;8.40;;;4.18;;
75112;SDS011;63692;47.338;8.520;2023-12-28T20:59:41;9.25;;;4.45;;
